RLU5556 UAOL-UUWW
Flight info
| Callsign | RLU5556 |
|---|---|
| Flight time | 3h 24m |
| Altitude | 34000 |
| Route | N0420F340 INKUM DCT MILSO M161 LEDGI M166 ARISA L736 OLOPI |
| Aircraft | CRJ1/M-J/L |
Departure
| Time | 2026-04-29 12:23 |
|---|---|
| Airport | Baikonur Krayniy International Airport (UAOL) |
Arrival
| Time | 2026-04-29 15:47 |
|---|---|
| Airport | Vnukovo International Airport (UUWW) |
| Time | Latitude | Longitude | Altitude | Speed | Heading |
|---|---|---|---|---|---|
| 2026-04-29 12:14 | 45.61849 | 63.21271 | 323 ft | 0 kts | 98° |
| 2026-04-29 12:20 | 45.61849 | 63.21272 | 323 ft | 1 kts | 98° |
| 2026-04-29 12:20 | 45.61852 | 63.21318 | 323 ft | 9 kts | 68° |
| 2026-04-29 12:21 | 45.61916 | 63.21320 | 322 ft | 14 kts | 325° |
| 2026-04-29 12:21 | 45.62018 | 63.21226 | 322 ft | 20 kts | 327° |
| 2026-04-29 12:21 | 45.62140 | 63.21107 | 322 ft | 23 kts | 314° |
| 2026-04-29 12:21 | 45.62113 | 63.20888 | 324 ft | 26 kts | 237° |
| 2026-04-29 12:22 | 45.62006 | 63.20656 | 323 ft | 29 kts | 237° |
| 2026-04-29 12:22 | 45.61889 | 63.20400 | 324 ft | 32 kts | 237° |
| 2026-04-29 12:22 | 45.61761 | 63.20123 | 324 ft | 32 kts | 232° |
| 2026-04-29 12:22 | 45.61664 | 63.19979 | 325 ft | 5 kts | 270° |
| 2026-04-29 12:23 | 45.61684 | 63.19967 | 325 ft | 6 kts | 31° |
| 2026-04-29 12:23 | 45.61814 | 63.20240 | 326 ft | 74 kts | 58° |
| 2026-04-29 12:23 | 45.62248 | 63.21186 | 325 ft | 149 kts | 57° |
| 2026-04-29 12:23 | 45.62867 | 63.22535 | 928 ft | 164 kts | 56° |
| 2026-04-29 12:24 | 45.63545 | 63.23938 | 1769 ft | 180 kts | 52° |
| 2026-04-29 12:24 | 45.64357 | 63.25454 | 2378 ft | 202 kts | 55° |
| 2026-04-29 12:24 | 45.65219 | 63.27144 | 3074 ft | 218 kts | 46° |
| 2026-04-29 12:24 | 45.66609 | 63.28176 | 3544 ft | 240 kts | 9° |
| 2026-04-29 12:25 | 45.68204 | 63.27863 | 4620 ft | 236 kts | 336° |
| 2026-04-29 12:25 | 45.69454 | 63.26336 | 5523 ft | 242 kts | 302° |
| 2026-04-29 12:25 | 45.70319 | 63.21689 | 7279 ft | 244 kts | 279° |
| 2026-04-29 12:26 | 45.70579 | 63.19297 | 8081 ft | 247 kts | 278° |
| 2026-04-29 12:26 | 45.70815 | 63.16845 | 8895 ft | 249 kts | 277° |
| 2026-04-29 12:26 | 45.71043 | 63.14367 | 9705 ft | 252 kts | 277° |
| 2026-04-29 12:26 | 45.71299 | 63.11833 | 10255 ft | 264 kts | 278° |
| 2026-04-29 12:27 | 45.71590 | 63.09252 | 10958 ft | 267 kts | 278° |
| 2026-04-29 12:27 | 45.71906 | 63.06617 | 11680 ft | 269 kts | 278° |
| 2026-04-29 12:27 | 45.72238 | 63.03960 | 12419 ft | 272 kts | 279° |
| 2026-04-29 12:27 | 45.72584 | 63.01275 | 13147 ft | 275 kts | 279° |
| 2026-04-29 12:28 | 45.72938 | 62.98564 | 13863 ft | 279 kts | 279° |
| 2026-04-29 12:28 | 45.73296 | 62.95842 | 14496 ft | 281 kts | 278° |
| 2026-04-29 12:28 | 45.73631 | 62.93055 | 15139 ft | 284 kts | 278° |
| 2026-04-29 12:28 | 45.73945 | 62.90283 | 15765 ft | 286 kts | 277° |
| 2026-04-29 12:29 | 45.74250 | 62.87441 | 16391 ft | 288 kts | 276° |
| 2026-04-29 12:29 | 45.74536 | 62.84619 | 17016 ft | 290 kts | 276° |
| 2026-04-29 12:29 | 45.74822 | 62.81725 | 17636 ft | 293 kts | 276° |
| 2026-04-29 12:29 | 45.75110 | 62.78816 | 18245 ft | 295 kts | 276° |
| 2026-04-29 12:30 | 45.75396 | 62.75926 | 18777 ft | 297 kts | 276° |
| 2026-04-29 12:30 | 45.75689 | 62.72978 | 19315 ft | 299 kts | 276° |
| 2026-04-29 12:30 | 45.75983 | 62.70023 | 19852 ft | 301 kts | 276° |
| 2026-04-29 12:30 | 45.76280 | 62.67044 | 20377 ft | 302 kts | 276° |
| 2026-04-29 12:31 | 45.76575 | 62.64087 | 20892 ft | 304 kts | 276° |
| 2026-04-29 12:31 | 45.76879 | 62.61075 | 21402 ft | 305 kts | 276° |
| 2026-04-29 12:31 | 45.77185 | 62.58050 | 21907 ft | 307 kts | 276° |
| 2026-04-29 12:31 | 45.77495 | 62.55011 | 22410 ft | 308 kts | 276° |
| 2026-04-29 12:32 | 45.77804 | 62.52003 | 22891 ft | 310 kts | 276° |
| 2026-04-29 12:32 | 45.78120 | 62.48928 | 23382 ft | 312 kts | 276° |
| 2026-04-29 12:32 | 45.78441 | 62.45834 | 23812 ft | 313 kts | 276° |
| 2026-04-29 12:32 | 45.78765 | 62.42728 | 24199 ft | 315 kts | 277° |
| 2026-04-29 12:33 | 45.79092 | 62.39632 | 24580 ft | 317 kts | 277° |
| 2026-04-29 12:33 | 45.79424 | 62.36497 | 24959 ft | 318 kts | 277° |
| 2026-04-29 12:33 | 45.79760 | 62.33374 | 25322 ft | 320 kts | 277° |
| 2026-04-29 12:33 | 45.80105 | 62.30201 | 25687 ft | 322 kts | 277° |
| 2026-04-29 12:34 | 45.80454 | 62.27026 | 26038 ft | 323 kts | 277° |
| 2026-04-29 12:34 | 45.80806 | 62.23874 | 26371 ft | 325 kts | 277° |
| 2026-04-29 12:34 | 45.81175 | 62.20655 | 26712 ft | 327 kts | 277° |
| 2026-04-29 12:34 | 45.81556 | 62.17422 | 27046 ft | 328 kts | 278° |
| 2026-04-29 12:35 | 45.81948 | 62.14220 | 27375 ft | 330 kts | 278° |
| 2026-04-29 12:35 | 45.82704 | 62.11090 | 27652 ft | 337 kts | 298° |
| 2026-04-29 12:35 | 45.83926 | 62.08251 | 27930 ft | 336 kts | 290° |
| 2026-04-29 12:35 | 45.84394 | 62.05000 | 28202 ft | 332 kts | 266° |
| 2026-04-29 12:36 | 45.83877 | 62.01829 | 28468 ft | 332 kts | 244° |
| 2026-04-29 12:36 | 45.82464 | 61.99198 | 28736 ft | 337 kts | 221° |
| 2026-04-29 12:36 | 45.80481 | 61.97351 | 28990 ft | 340 kts | 214° |
| 2026-04-29 12:36 | 45.78590 | 61.95397 | 29236 ft | 339 kts | 225° |
| 2026-04-29 12:37 | 45.77099 | 61.92790 | 29486 ft | 338 kts | 241° |
| 2026-04-29 12:37 | 45.76111 | 61.89730 | 29756 ft | 338 kts | 249° |
| 2026-04-29 12:37 | 45.75302 | 61.86588 | 30022 ft | 340 kts | 250° |
| 2026-04-29 12:37 | 45.74468 | 61.83401 | 30245 ft | 341 kts | 249° |
| 2026-04-29 12:38 | 45.73557 | 61.80241 | 30460 ft | 343 kts | 247° |
| 2026-04-29 12:38 | 45.72607 | 61.77126 | 30668 ft | 344 kts | 247° |
| 2026-04-29 12:38 | 45.71633 | 61.73988 | 30872 ft | 345 kts | 247° |
| 2026-04-29 12:38 | 45.70676 | 61.70821 | 31073 ft | 347 kts | 248° |
| 2026-04-29 12:39 | 45.69742 | 61.67671 | 31286 ft | 348 kts | 248° |
| 2026-04-29 12:39 | 45.68798 | 61.64505 | 31472 ft | 349 kts | 248° |
| 2026-04-29 12:39 | 45.67841 | 61.61303 | 31663 ft | 350 kts | 247° |
| 2026-04-29 12:39 | 45.66881 | 61.58098 | 31885 ft | 350 kts | 247° |
| 2026-04-29 12:40 | 45.65920 | 61.54895 | 32121 ft | 349 kts | 248° |
| 2026-04-29 12:40 | 45.64974 | 61.51742 | 32351 ft | 349 kts | 248° |
| 2026-04-29 12:40 | 45.64011 | 61.48537 | 32566 ft | 348 kts | 248° |
| 2026-04-29 12:40 | 45.63052 | 61.45351 | 32780 ft | 348 kts | 247° |
| 2026-04-29 12:41 | 45.62108 | 61.42216 | 32988 ft | 347 kts | 247° |
| 2026-04-29 12:41 | 45.61149 | 61.39042 | 33196 ft | 347 kts | 248° |
| 2026-04-29 12:41 | 45.60191 | 61.35869 | 33389 ft | 346 kts | 248° |
| 2026-04-29 12:41 | 45.59234 | 61.32702 | 33590 ft | 346 kts | 248° |
| 2026-04-29 12:42 | 45.58279 | 61.29550 | 33785 ft | 345 kts | 248° |
| 2026-04-29 12:42 | 45.57335 | 61.26437 | 33896 ft | 347 kts | 248° |
| 2026-04-29 12:42 | 45.56367 | 61.23252 | 33940 ft | 350 kts | 248° |
| 2026-04-29 12:43 | 45.54410 | 61.16815 | 33975 ft | 358 kts | 248° |
| 2026-04-29 12:43 | 45.52396 | 61.10209 | 33986 ft | 367 kts | 247° |
| 2026-04-29 12:44 | 45.50342 | 61.03493 | 33988 ft | 375 kts | 247° |
| 2026-04-29 12:44 | 45.48236 | 60.96661 | 33989 ft | 378 kts | 248° |
| 2026-04-29 12:44 | 45.47539 | 60.93036 | 33981 ft | 377 kts | 263° |
| 2026-04-29 12:45 | 45.47590 | 60.89346 | 33997 ft | 379 kts | 278° |
| 2026-04-29 12:45 | 45.49016 | 60.82065 | 34001 ft | 382 kts | 286° |
| 2026-04-29 12:46 | 45.50743 | 60.74906 | 33989 ft | 384 kts | 286° |
| 2026-04-29 12:46 | 45.52547 | 60.67680 | 33988 ft | 386 kts | 287° |
| 2026-04-29 12:47 | 45.54460 | 60.60533 | 33981 ft | 389 kts | 291° |
| 2026-04-29 12:47 | 45.55910 | 60.57236 | 33986 ft | 396 kts | 307° |
| 2026-04-29 12:47 | 45.57945 | 60.54596 | 34001 ft | 404 kts | 321° |
| 2026-04-29 12:48 | 45.62749 | 60.50295 | 33996 ft | 406 kts | 320° |
| 2026-04-29 12:48 | 45.67083 | 60.45228 | 33996 ft | 402 kts | 312° |
| 2026-04-29 12:49 | 45.71133 | 60.39746 | 33990 ft | 403 kts | 311° |
| 2026-04-29 12:49 | 45.75280 | 60.34278 | 33991 ft | 405 kts | 313° |
| 2026-04-29 12:50 | 45.79443 | 60.28870 | 33992 ft | 406 kts | 313° |
| 2026-04-29 12:50 | 45.83620 | 60.23435 | 33995 ft | 407 kts | 313° |
| 2026-04-29 12:51 | 45.87837 | 60.17935 | 33996 ft | 409 kts | 312° |
| 2026-04-29 12:51 | 45.92039 | 60.12444 | 34003 ft | 410 kts | 312° |
| 2026-04-29 12:52 | 45.96248 | 60.06930 | 34007 ft | 411 kts | 312° |
| 2026-04-29 12:52 | 46.00495 | 60.01356 | 34003 ft | 412 kts | 312° |
| 2026-04-29 12:53 | 46.04716 | 59.95803 | 34001 ft | 414 kts | 312° |
| 2026-04-29 12:53 | 46.08960 | 59.90210 | 34007 ft | 415 kts | 312° |
| 2026-04-29 12:54 | 46.13209 | 59.84596 | 34014 ft | 416 kts | 312° |
| 2026-04-29 12:54 | 46.17494 | 59.78926 | 34012 ft | 417 kts | 312° |
| 2026-04-29 12:55 | 46.21759 | 59.73262 | 34012 ft | 418 kts | 312° |
| 2026-04-29 12:55 | 46.25966 | 59.67519 | 34014 ft | 417 kts | 310° |
| 2026-04-29 12:56 | 46.29403 | 59.62599 | 34015 ft | 418 kts | 310° |
| 2026-04-29 12:56 | 46.33526 | 59.56683 | 34018 ft | 419 kts | 309° |
| 2026-04-29 12:57 | 46.37675 | 59.50720 | 34020 ft | 420 kts | 309° |
| 2026-04-29 12:57 | 46.41810 | 59.44760 | 34020 ft | 420 kts | 309° |
| 2026-04-29 12:58 | 46.45949 | 59.38784 | 34017 ft | 421 kts | 309° |
| 2026-04-29 12:58 | 46.50099 | 59.32778 | 34013 ft | 421 kts | 309° |
| 2026-04-29 12:59 | 46.54240 | 59.26772 | 34015 ft | 422 kts | 309° |
| 2026-04-29 12:59 | 46.58353 | 59.20792 | 34016 ft | 421 kts | 309° |
| 2026-04-29 13:00 | 46.62451 | 59.14819 | 34013 ft | 419 kts | 308° |
| 2026-04-29 13:00 | 46.66537 | 59.08852 | 34012 ft | 417 kts | 308° |
| 2026-04-29 13:00 | 46.68588 | 59.05841 | 33866 ft | 415 kts | 316° |
| 2026-04-29 13:01 | 46.70588 | 59.02803 | 34068 ft | 414 kts | 305° |
| 2026-04-29 13:01 | 46.74668 | 58.96922 | 34020 ft | 414 kts | 308° |
| 2026-04-29 13:02 | 46.78726 | 58.90962 | 34018 ft | 412 kts | 308° |
| 2026-04-29 13:02 | 46.82747 | 58.85036 | 34020 ft | 411 kts | 307° |
| 2026-04-29 13:03 | 46.86742 | 58.79129 | 34015 ft | 410 kts | 307° |
| 2026-04-29 13:03 | 46.90733 | 58.73223 | 34020 ft | 408 kts | 307° |
| 2026-04-29 13:04 | 46.94716 | 58.67312 | 34019 ft | 407 kts | 307° |
| 2026-04-29 13:04 | 46.98700 | 58.61385 | 34028 ft | 406 kts | 307° |
| 2026-04-29 13:05 | 47.02643 | 58.55507 | 34031 ft | 405 kts | 307° |
| 2026-04-29 13:05 | 47.06581 | 58.49625 | 34029 ft | 404 kts | 307° |
| 2026-04-29 13:06 | 47.10506 | 58.43750 | 34032 ft | 403 kts | 306° |
| 2026-04-29 13:06 | 47.14407 | 58.37896 | 34038 ft | 402 kts | 306° |
| 2026-04-29 13:07 | 47.18325 | 58.32005 | 34040 ft | 401 kts | 306° |
| 2026-04-29 13:07 | 47.22208 | 58.26147 | 34048 ft | 400 kts | 306° |
| 2026-04-29 13:08 | 47.26088 | 58.20294 | 34048 ft | 400 kts | 306° |
| 2026-04-29 13:08 | 47.29981 | 58.14412 | 34046 ft | 399 kts | 306° |
| 2026-04-29 13:09 | 47.33825 | 58.08550 | 34048 ft | 398 kts | 306° |
| 2026-04-29 13:09 | 47.37678 | 58.02693 | 34051 ft | 398 kts | 306° |
| 2026-04-29 13:10 | 47.41524 | 57.96832 | 34055 ft | 397 kts | 306° |
| 2026-04-29 13:10 | 47.45356 | 57.90972 | 34053 ft | 397 kts | 305° |
| 2026-04-29 13:11 | 47.49200 | 57.85083 | 34050 ft | 396 kts | 305° |
| 2026-04-29 13:11 | 47.53010 | 57.79234 | 34048 ft | 396 kts | 305° |
| 2026-04-29 13:12 | 47.56814 | 57.73377 | 34059 ft | 395 kts | 305° |
| 2026-04-29 13:12 | 47.60610 | 57.67535 | 34064 ft | 395 kts | 305° |
| 2026-04-29 13:13 | 47.64405 | 57.61682 | 34065 ft | 394 kts | 304° |
| 2026-04-29 13:13 | 47.68202 | 57.55770 | 34064 ft | 394 kts | 305° |
| 2026-04-29 13:14 | 47.71977 | 57.49919 | 34065 ft | 393 kts | 304° |
| 2026-04-29 13:14 | 47.75753 | 57.44041 | 34058 ft | 393 kts | 304° |
| 2026-04-29 13:15 | 47.79512 | 57.38179 | 34058 ft | 392 kts | 304° |
| 2026-04-29 13:15 | 47.83267 | 57.32308 | 34061 ft | 392 kts | 304° |
| 2026-04-29 13:16 | 47.87029 | 57.26414 | 34062 ft | 391 kts | 304° |
| 2026-04-29 13:16 | 47.90765 | 57.20548 | 34067 ft | 391 kts | 304° |
| 2026-04-29 13:17 | 47.94482 | 57.14696 | 34067 ft | 390 kts | 304° |
| 2026-04-29 13:17 | 47.98212 | 57.08811 | 34068 ft | 390 kts | 304° |
| 2026-04-29 13:18 | 48.01944 | 57.02908 | 34067 ft | 390 kts | 304° |
| 2026-04-29 13:18 | 48.05663 | 56.97016 | 34069 ft | 389 kts | 304° |
| 2026-04-29 13:19 | 48.09364 | 56.91114 | 34078 ft | 389 kts | 303° |
| 2026-04-29 13:19 | 48.13045 | 56.85205 | 34082 ft | 389 kts | 303° |
| 2026-04-29 13:20 | 48.16732 | 56.79299 | 34083 ft | 389 kts | 303° |
| 2026-04-29 13:20 | 48.20440 | 56.73390 | 34082 ft | 389 kts | 303° |
| 2026-04-29 13:21 | 48.24138 | 56.67460 | 34085 ft | 389 kts | 303° |
| 2026-04-29 13:21 | 48.27819 | 56.61543 | 34090 ft | 389 kts | 303° |
| 2026-04-29 13:22 | 48.31505 | 56.55611 | 34089 ft | 388 kts | 303° |
| 2026-04-29 13:22 | 48.35194 | 56.49660 | 34094 ft | 388 kts | 303° |
| 2026-04-29 13:23 | 48.38865 | 56.43730 | 34097 ft | 388 kts | 303° |
| 2026-04-29 13:23 | 48.42548 | 56.37774 | 34109 ft | 388 kts | 303° |
| 2026-04-29 13:24 | 48.46203 | 56.31845 | 34109 ft | 389 kts | 303° |
| 2026-04-29 13:24 | 48.49871 | 56.25881 | 34103 ft | 389 kts | 303° |
| 2026-04-29 13:25 | 48.53539 | 56.19905 | 34104 ft | 388 kts | 303° |
| 2026-04-29 13:25 | 48.59054 | 56.10888 | 34107 ft | 389 kts | 303° |
| 2026-04-29 13:26 | 48.62714 | 56.04885 | 34107 ft | 391 kts | 303° |
| 2026-04-29 13:26 | 48.66411 | 55.98811 | 34117 ft | 392 kts | 303° |
| 2026-04-29 13:27 | 48.70106 | 55.92723 | 34120 ft | 394 kts | 302° |
| 2026-04-29 13:27 | 48.73795 | 55.86634 | 34123 ft | 395 kts | 302° |
| 2026-04-29 13:28 | 48.77517 | 55.80474 | 34125 ft | 397 kts | 302° |
| 2026-04-29 13:28 | 48.81240 | 55.74295 | 34125 ft | 398 kts | 302° |
| 2026-04-29 13:29 | 48.85000 | 55.68041 | 34131 ft | 400 kts | 302° |
| 2026-04-29 13:29 | 48.88741 | 55.61801 | 34129 ft | 401 kts | 302° |
| 2026-04-29 13:30 | 48.92481 | 55.55542 | 34128 ft | 402 kts | 302° |
| 2026-04-29 13:30 | 48.96241 | 55.49237 | 34132 ft | 403 kts | 302° |
| 2026-04-29 13:31 | 49.00022 | 55.42879 | 34140 ft | 404 kts | 302° |
| 2026-04-29 13:31 | 49.03793 | 55.36524 | 34133 ft | 405 kts | 302° |
| 2026-04-29 13:32 | 49.07549 | 55.30180 | 34145 ft | 406 kts | 302° |
| 2026-04-29 13:32 | 49.11324 | 55.23785 | 34143 ft | 407 kts | 302° |
| 2026-04-29 13:33 | 49.15130 | 55.17325 | 34146 ft | 408 kts | 302° |
| 2026-04-29 13:33 | 49.18283 | 55.11962 | 34143 ft | 408 kts | 302° |
| 2026-04-29 13:34 | 49.22701 | 55.04427 | 34149 ft | 409 kts | 301° |
| 2026-04-29 13:34 | 49.26523 | 54.97892 | 34151 ft | 410 kts | 301° |
| 2026-04-29 13:35 | 49.30320 | 54.91384 | 34151 ft | 411 kts | 301° |
| 2026-04-29 13:35 | 49.34124 | 54.84848 | 34153 ft | 411 kts | 301° |
| 2026-04-29 13:36 | 49.37921 | 54.78308 | 34153 ft | 412 kts | 301° |
| 2026-04-29 13:36 | 49.41735 | 54.71720 | 34155 ft | 412 kts | 301° |
| 2026-04-29 13:37 | 49.45544 | 54.65126 | 34157 ft | 413 kts | 301° |
| 2026-04-29 13:37 | 49.49352 | 54.58516 | 34157 ft | 413 kts | 301° |
| 2026-04-29 13:38 | 49.53156 | 54.51896 | 34160 ft | 414 kts | 301° |
| 2026-04-29 13:38 | 49.56957 | 54.45262 | 34171 ft | 414 kts | 301° |
| 2026-04-29 13:39 | 49.60774 | 54.38586 | 34169 ft | 415 kts | 301° |
| 2026-04-29 13:39 | 49.64592 | 54.31891 | 34170 ft | 416 kts | 301° |
| 2026-04-29 13:40 | 49.68388 | 54.25215 | 34175 ft | 416 kts | 301° |
| 2026-04-29 13:40 | 49.72219 | 54.18460 | 34173 ft | 416 kts | 301° |
| 2026-04-29 13:41 | 49.76024 | 54.11739 | 34173 ft | 416 kts | 301° |
| 2026-04-29 13:41 | 49.79832 | 54.04989 | 34175 ft | 416 kts | 300° |
| 2026-04-29 13:42 | 49.83619 | 53.98263 | 34176 ft | 416 kts | 300° |
| 2026-04-29 13:42 | 49.87422 | 53.91488 | 34176 ft | 415 kts | 300° |
| 2026-04-29 13:43 | 49.91195 | 53.84751 | 34178 ft | 415 kts | 300° |
| 2026-04-29 13:43 | 49.94993 | 53.77949 | 34180 ft | 415 kts | 300° |
| 2026-04-29 13:44 | 49.98748 | 53.71208 | 34180 ft | 415 kts | 300° |
| 2026-04-29 13:44 | 50.02515 | 53.64429 | 34180 ft | 415 kts | 300° |
| 2026-04-29 13:45 | 50.06287 | 53.57621 | 34179 ft | 415 kts | 300° |
| 2026-04-29 13:45 | 50.10048 | 53.50819 | 34181 ft | 415 kts | 300° |
| 2026-04-29 13:46 | 50.13812 | 53.43989 | 34180 ft | 414 kts | 300° |
| 2026-04-29 13:46 | 50.17560 | 53.37174 | 34188 ft | 414 kts | 300° |
| 2026-04-29 13:47 | 50.21311 | 53.30333 | 34185 ft | 414 kts | 299° |
| 2026-04-29 13:47 | 50.25024 | 53.23546 | 34182 ft | 414 kts | 299° |
| 2026-04-29 13:48 | 50.28756 | 53.16704 | 34184 ft | 414 kts | 299° |
| 2026-04-29 13:48 | 50.32485 | 53.09850 | 34177 ft | 414 kts | 299° |
| 2026-04-29 13:49 | 50.36213 | 53.02980 | 34177 ft | 414 kts | 299° |
| 2026-04-29 13:49 | 50.39935 | 52.96102 | 34178 ft | 413 kts | 299° |
| 2026-04-29 13:50 | 50.42980 | 52.90461 | 34181 ft | 413 kts | 298° |
| 2026-04-29 13:50 | 50.46681 | 52.83587 | 34181 ft | 413 kts | 298° |
| 2026-04-29 13:51 | 50.50375 | 52.76709 | 34181 ft | 413 kts | 298° |
| 2026-04-29 13:51 | 50.54085 | 52.69784 | 34173 ft | 413 kts | 298° |
| 2026-04-29 13:52 | 50.57762 | 52.62898 | 34179 ft | 413 kts | 298° |
| 2026-04-29 13:52 | 50.61461 | 52.55957 | 34174 ft | 413 kts | 298° |
| 2026-04-29 13:53 | 50.65146 | 52.49020 | 34187 ft | 413 kts | 298° |
| 2026-04-29 13:53 | 50.68813 | 52.42105 | 34171 ft | 413 kts | 298° |
| 2026-04-29 13:54 | 50.72512 | 52.35152 | 34172 ft | 413 kts | 298° |
| 2026-04-29 13:54 | 50.75596 | 52.29370 | 34167 ft | 413 kts | 298° |
| 2026-04-29 13:55 | 50.79298 | 52.22398 | 34167 ft | 413 kts | 298° |
| 2026-04-29 13:55 | 50.82973 | 52.15451 | 34163 ft | 413 kts | 298° |
| 2026-04-29 13:56 | 50.86653 | 52.08479 | 34165 ft | 413 kts | 298° |
| 2026-04-29 13:56 | 50.90324 | 52.01503 | 34163 ft | 413 kts | 298° |
| 2026-04-29 13:57 | 50.93985 | 51.94530 | 34162 ft | 413 kts | 298° |
| 2026-04-29 13:57 | 50.97666 | 51.87500 | 34159 ft | 413 kts | 298° |
| 2026-04-29 13:58 | 51.01314 | 51.80512 | 34157 ft | 412 kts | 298° |
| 2026-04-29 13:58 | 51.04963 | 51.73505 | 34165 ft | 413 kts | 298° |
| 2026-04-29 13:59 | 51.08636 | 51.66433 | 34165 ft | 413 kts | 298° |
| 2026-04-29 13:59 | 51.12278 | 51.59401 | 34167 ft | 413 kts | 298° |
| 2026-04-29 14:00 | 51.15672 | 51.52125 | 34166 ft | 404 kts | 291° |
| 2026-04-29 14:00 | 51.18445 | 51.44416 | 34156 ft | 398 kts | 288° |
| 2026-04-29 14:01 | 51.21080 | 51.36718 | 34160 ft | 399 kts | 288° |
| 2026-04-29 14:01 | 51.23788 | 51.28946 | 34162 ft | 399 kts | 288° |
| 2026-04-29 14:02 | 51.26454 | 51.21255 | 34156 ft | 399 kts | 288° |
| 2026-04-29 14:02 | 51.29144 | 51.13449 | 34151 ft | 399 kts | 288° |
| 2026-04-29 14:03 | 51.31801 | 51.05722 | 34152 ft | 399 kts | 288° |
| 2026-04-29 14:03 | 51.34477 | 50.97905 | 34157 ft | 399 kts | 288° |
| 2026-04-29 14:04 | 51.37122 | 50.90157 | 34152 ft | 399 kts | 288° |
| 2026-04-29 14:04 | 51.39782 | 50.82344 | 34148 ft | 399 kts | 288° |
| 2026-04-29 14:05 | 51.42431 | 50.74537 | 34153 ft | 399 kts | 288° |
| 2026-04-29 14:05 | 51.45076 | 50.66716 | 34151 ft | 399 kts | 288° |
| 2026-04-29 14:06 | 51.47713 | 50.58900 | 34150 ft | 399 kts | 288° |
| 2026-04-29 14:06 | 51.50216 | 50.51016 | 34145 ft | 395 kts | 284° |
| 2026-04-29 14:07 | 51.52475 | 50.43021 | 34146 ft | 394 kts | 284° |
| 2026-04-29 14:07 | 51.54744 | 50.34988 | 34147 ft | 394 kts | 284° |
| 2026-04-29 14:08 | 51.57034 | 50.27010 | 34150 ft | 395 kts | 284° |
| 2026-04-29 14:08 | 51.59337 | 50.18991 | 34154 ft | 395 kts | 284° |
| 2026-04-29 14:09 | 51.61614 | 50.10993 | 34138 ft | 395 kts | 284° |
| 2026-04-29 14:09 | 51.63904 | 50.02920 | 34141 ft | 395 kts | 284° |
| 2026-04-29 14:10 | 51.66185 | 49.94873 | 34144 ft | 395 kts | 284° |
| 2026-04-29 14:10 | 51.68450 | 49.86851 | 34139 ft | 395 kts | 284° |
| 2026-04-29 14:11 | 51.70720 | 49.78743 | 34143 ft | 395 kts | 284° |
| 2026-04-29 14:11 | 51.72969 | 49.70717 | 34142 ft | 395 kts | 284° |
| 2026-04-29 14:12 | 51.75230 | 49.62621 | 34136 ft | 396 kts | 284° |
| 2026-04-29 14:12 | 51.77484 | 49.54521 | 34139 ft | 396 kts | 284° |
| 2026-04-29 14:13 | 51.79732 | 49.46405 | 34136 ft | 396 kts | 284° |
| 2026-04-29 14:13 | 51.81972 | 49.38295 | 34137 ft | 396 kts | 284° |
| 2026-04-29 14:14 | 51.84210 | 49.30167 | 34133 ft | 396 kts | 284° |
| 2026-04-29 14:14 | 51.86444 | 49.22022 | 34140 ft | 397 kts | 284° |
| 2026-04-29 14:15 | 51.88679 | 49.13843 | 34138 ft | 397 kts | 284° |
| 2026-04-29 14:15 | 51.90903 | 49.05681 | 34138 ft | 397 kts | 284° |
| 2026-04-29 14:16 | 51.93121 | 48.97508 | 34138 ft | 397 kts | 284° |
| 2026-04-29 14:16 | 51.95346 | 48.89281 | 34141 ft | 398 kts | 284° |
| 2026-04-29 14:17 | 51.97561 | 48.81077 | 34137 ft | 398 kts | 284° |
| 2026-04-29 14:17 | 51.99757 | 48.72883 | 34138 ft | 398 kts | 284° |
| 2026-04-29 14:18 | 52.01960 | 48.64603 | 34140 ft | 398 kts | 284° |
| 2026-04-29 14:18 | 52.04157 | 48.56352 | 34137 ft | 399 kts | 284° |
| 2026-04-29 14:19 | 52.06345 | 48.48099 | 34129 ft | 399 kts | 284° |
| 2026-04-29 14:19 | 52.08523 | 48.39849 | 34131 ft | 399 kts | 284° |
| 2026-04-29 14:20 | 52.10710 | 48.31535 | 34132 ft | 399 kts | 284° |
| 2026-04-29 14:20 | 52.12893 | 48.23208 | 34130 ft | 399 kts | 284° |
| 2026-04-29 14:21 | 52.15076 | 48.14968 | 34129 ft | 400 kts | 285° |
| 2026-04-29 14:21 | 52.17339 | 48.06694 | 34129 ft | 400 kts | 285° |
| 2026-04-29 14:22 | 52.19610 | 47.98380 | 34131 ft | 400 kts | 285° |
| 2026-04-29 14:22 | 52.21867 | 47.90102 | 34136 ft | 400 kts | 285° |
| 2026-04-29 14:23 | 52.24127 | 47.81780 | 34134 ft | 401 kts | 285° |
| 2026-04-29 14:23 | 52.26379 | 47.73453 | 34137 ft | 401 kts | 285° |
| 2026-04-29 14:24 | 52.28630 | 47.65104 | 34129 ft | 402 kts | 285° |
| 2026-04-29 14:24 | 52.30872 | 47.56753 | 34133 ft | 402 kts | 286° |
| 2026-04-29 14:25 | 52.33102 | 47.48409 | 34131 ft | 402 kts | 285° |
| 2026-04-29 14:25 | 52.35349 | 47.40022 | 34123 ft | 403 kts | 285° |
| 2026-04-29 14:26 | 52.37582 | 47.31615 | 34124 ft | 403 kts | 285° |
| 2026-04-29 14:26 | 52.39818 | 47.23175 | 34134 ft | 404 kts | 285° |
| 2026-04-29 14:27 | 52.42034 | 47.14790 | 34133 ft | 404 kts | 285° |
| 2026-04-29 14:28 | 52.45382 | 47.02051 | 34131 ft | 405 kts | 285° |
| 2026-04-29 14:28 | 52.47604 | 46.93553 | 34133 ft | 406 kts | 285° |
| 2026-04-29 14:29 | 52.49832 | 46.85011 | 34128 ft | 407 kts | 285° |
| 2026-04-29 14:29 | 52.52043 | 46.76486 | 34131 ft | 408 kts | 285° |
| 2026-04-29 14:30 | 52.54253 | 46.67911 | 34135 ft | 408 kts | 285° |
| 2026-04-29 14:30 | 52.56460 | 46.59317 | 34130 ft | 409 kts | 285° |
| 2026-04-29 14:31 | 52.58667 | 46.50691 | 34129 ft | 410 kts | 285° |
| 2026-04-29 14:31 | 52.60864 | 46.42077 | 34128 ft | 410 kts | 285° |
| 2026-04-29 14:32 | 52.63055 | 46.33392 | 34132 ft | 410 kts | 284° |
| 2026-04-29 14:32 | 52.65071 | 46.24638 | 34130 ft | 409 kts | 283° |
| 2026-04-29 14:33 | 52.67043 | 46.15846 | 34125 ft | 410 kts | 283° |
| 2026-04-29 14:33 | 52.69024 | 46.07010 | 34129 ft | 410 kts | 283° |
| 2026-04-29 14:34 | 52.70982 | 45.98207 | 34128 ft | 411 kts | 283° |
| 2026-04-29 14:34 | 52.72944 | 45.89341 | 34125 ft | 411 kts | 283° |
| 2026-04-29 14:35 | 52.74894 | 45.80499 | 34131 ft | 412 kts | 283° |
| 2026-04-29 14:35 | 52.76842 | 45.71633 | 34129 ft | 412 kts | 283° |
| 2026-04-29 14:36 | 52.78800 | 45.62675 | 34131 ft | 413 kts | 283° |
| 2026-04-29 14:36 | 52.80736 | 45.53784 | 34134 ft | 414 kts | 283° |
| 2026-04-29 14:37 | 52.82676 | 45.44797 | 34131 ft | 414 kts | 283° |
| 2026-04-29 14:37 | 52.84600 | 45.35807 | 34118 ft | 415 kts | 283° |
| 2026-04-29 14:38 | 52.86527 | 45.26849 | 34126 ft | 415 kts | 284° |
| 2026-04-29 14:38 | 52.88454 | 45.17844 | 34121 ft | 415 kts | 283° |
| 2026-04-29 14:39 | 52.90366 | 45.08844 | 34120 ft | 415 kts | 284° |
| 2026-04-29 14:39 | 52.92280 | 44.99806 | 34122 ft | 415 kts | 284° |
| 2026-04-29 14:40 | 52.94210 | 44.90770 | 34123 ft | 416 kts | 284° |
| 2026-04-29 14:40 | 52.96194 | 44.81836 | 34120 ft | 416 kts | 285° |
| 2026-04-29 14:41 | 52.98210 | 44.72786 | 34127 ft | 417 kts | 285° |
| 2026-04-29 14:41 | 53.00219 | 44.63762 | 34125 ft | 417 kts | 285° |
| 2026-04-29 14:42 | 53.02209 | 44.54756 | 34123 ft | 417 kts | 285° |
| 2026-04-29 14:42 | 53.04212 | 44.45672 | 34122 ft | 418 kts | 285° |
| 2026-04-29 14:43 | 53.06189 | 44.36623 | 34126 ft | 418 kts | 285° |
| 2026-04-29 14:43 | 53.08176 | 44.27551 | 34122 ft | 418 kts | 285° |
| 2026-04-29 14:44 | 53.10157 | 44.18419 | 34121 ft | 419 kts | 285° |
| 2026-04-29 14:44 | 53.12121 | 44.09328 | 34123 ft | 419 kts | 285° |
| 2026-04-29 14:45 | 53.14091 | 44.00164 | 34121 ft | 420 kts | 285° |
| 2026-04-29 14:45 | 53.16051 | 43.91026 | 34126 ft | 420 kts | 285° |
| 2026-04-29 14:46 | 53.18002 | 43.81868 | 34128 ft | 420 kts | 285° |
| 2026-04-29 14:46 | 53.19956 | 43.72671 | 34127 ft | 421 kts | 285° |
| 2026-04-29 14:47 | 53.21211 | 43.66733 | 34127 ft | 421 kts | 285° |
| 2026-04-29 14:47 | 53.23149 | 43.57544 | 34124 ft | 421 kts | 285° |
| 2026-04-29 14:48 | 53.25089 | 43.48289 | 34128 ft | 420 kts | 285° |
| 2026-04-29 14:48 | 53.27005 | 43.39114 | 34126 ft | 420 kts | 285° |
| 2026-04-29 14:49 | 53.28920 | 43.29904 | 34127 ft | 419 kts | 285° |
| 2026-04-29 14:49 | 53.30820 | 43.20718 | 34123 ft | 419 kts | 285° |
| 2026-04-29 14:50 | 53.32710 | 43.11539 | 34126 ft | 418 kts | 285° |
| 2026-04-29 14:50 | 53.34595 | 43.02343 | 34126 ft | 418 kts | 285° |
| 2026-04-29 14:51 | 53.36480 | 42.93107 | 34119 ft | 418 kts | 285° |
| 2026-04-29 14:51 | 53.38346 | 42.83917 | 34122 ft | 418 kts | 285° |
| 2026-04-29 14:52 | 53.40213 | 42.74685 | 34119 ft | 418 kts | 285° |
| 2026-04-29 14:52 | 53.42059 | 42.65503 | 34119 ft | 418 kts | 285° |
| 2026-04-29 14:53 | 53.43916 | 42.56243 | 34126 ft | 418 kts | 285° |
| 2026-04-29 14:53 | 53.45746 | 42.47048 | 34124 ft | 418 kts | 285° |
| 2026-04-29 14:54 | 53.47455 | 42.37746 | 34124 ft | 417 kts | 284° |
| 2026-04-29 14:54 | 53.49106 | 42.28384 | 34121 ft | 418 kts | 283° |
| 2026-04-29 14:55 | 53.50745 | 42.19056 | 34123 ft | 418 kts | 283° |
| 2026-04-29 14:55 | 53.52387 | 42.09648 | 34121 ft | 418 kts | 283° |
| 2026-04-29 14:56 | 53.54010 | 42.00292 | 34119 ft | 418 kts | 283° |
| 2026-04-29 14:56 | 53.55626 | 41.90922 | 34119 ft | 419 kts | 283° |
| 2026-04-29 14:57 | 53.56976 | 41.83058 | 34120 ft | 419 kts | 283° |
| 2026-04-29 14:57 | 53.58582 | 41.73657 | 34120 ft | 419 kts | 283° |
| 2026-04-29 14:58 | 53.60188 | 41.64201 | 34118 ft | 420 kts | 283° |
| 2026-04-29 14:58 | 53.61784 | 41.54757 | 34117 ft | 420 kts | 283° |
| 2026-04-29 14:59 | 53.63378 | 41.45274 | 34119 ft | 420 kts | 283° |
| 2026-04-29 14:59 | 53.64958 | 41.35819 | 34118 ft | 420 kts | 283° |
| 2026-04-29 15:00 | 53.66536 | 41.26319 | 34126 ft | 421 kts | 283° |
| 2026-04-29 15:00 | 53.68102 | 41.16857 | 34121 ft | 421 kts | 283° |
| 2026-04-29 15:01 | 53.69668 | 41.07328 | 34121 ft | 421 kts | 283° |
| 2026-04-29 15:01 | 53.71489 | 40.97928 | 34123 ft | 423 kts | 289° |
| 2026-04-29 15:02 | 53.73882 | 40.88840 | 34124 ft | 424 kts | 292° |
| 2026-04-29 15:02 | 53.75898 | 40.81368 | 34124 ft | 424 kts | 291° |
| 2026-04-29 15:03 | 53.78266 | 40.72204 | 34124 ft | 425 kts | 291° |
| 2026-04-29 15:03 | 53.80606 | 40.63074 | 34121 ft | 425 kts | 291° |
| 2026-04-29 15:04 | 53.82955 | 40.53876 | 34123 ft | 425 kts | 291° |
| 2026-04-29 15:04 | 53.85283 | 40.44716 | 34121 ft | 426 kts | 291° |
| 2026-04-29 15:05 | 53.87617 | 40.35470 | 34121 ft | 426 kts | 291° |
| 2026-04-29 15:05 | 53.89907 | 40.26222 | 34121 ft | 426 kts | 291° |
| 2026-04-29 15:06 | 53.92234 | 40.16974 | 34121 ft | 426 kts | 291° |
| 2026-04-29 15:06 | 53.94563 | 40.07754 | 34119 ft | 426 kts | 291° |
| 2026-04-29 15:07 | 53.96872 | 39.98507 | 34118 ft | 426 kts | 291° |
| 2026-04-29 15:07 | 53.99172 | 39.89266 | 34118 ft | 425 kts | 291° |
| 2026-04-29 15:08 | 54.01476 | 39.79975 | 34115 ft | 425 kts | 291° |
| 2026-04-29 15:08 | 54.03323 | 39.72497 | 34111 ft | 425 kts | 291° |
| 2026-04-29 15:09 | 54.05102 | 39.65274 | 34115 ft | 425 kts | 291° |
| 2026-04-29 15:09 | 54.07364 | 39.56051 | 34116 ft | 425 kts | 291° |
| 2026-04-29 15:10 | 54.09631 | 39.46770 | 34116 ft | 424 kts | 291° |
| 2026-04-29 15:10 | 54.11890 | 39.37484 | 34117 ft | 424 kts | 291° |
| 2026-04-29 15:11 | 54.14142 | 39.28183 | 34113 ft | 424 kts | 291° |
| 2026-04-29 15:11 | 54.16387 | 39.18872 | 34120 ft | 424 kts | 291° |
| 2026-04-29 15:12 | 54.18609 | 39.09620 | 34119 ft | 424 kts | 291° |
| 2026-04-29 15:12 | 54.20910 | 39.00356 | 34110 ft | 425 kts | 298° |
| 2026-04-29 15:12 | 54.22644 | 38.96274 | 34117 ft | 427 kts | 312° |
| 2026-04-29 15:13 | 54.24794 | 38.92770 | 34124 ft | 427 kts | 316° |
| 2026-04-29 15:13 | 54.29241 | 38.86023 | 34125 ft | 428 kts | 317° |
| 2026-04-29 15:14 | 54.34053 | 38.80070 | 34119 ft | 430 kts | 332° |
| 2026-04-29 15:14 | 54.39499 | 38.75944 | 34119 ft | 430 kts | 334° |
| 2026-04-29 15:15 | 54.44897 | 38.71522 | 34114 ft | 430 kts | 331° |
| 2026-04-29 15:15 | 54.50227 | 38.66870 | 34116 ft | 430 kts | 331° |
| 2026-04-29 15:16 | 54.55557 | 38.62197 | 34117 ft | 430 kts | 331° |
| 2026-04-29 15:16 | 54.60866 | 38.57607 | 34114 ft | 430 kts | 332° |
| 2026-04-29 15:16 | 54.63545 | 38.55290 | 33911 ft | 434 kts | 332° |
| 2026-04-29 15:17 | 54.66255 | 38.52931 | 33506 ft | 437 kts | 332° |
| 2026-04-29 15:17 | 54.68970 | 38.50561 | 33105 ft | 437 kts | 332° |
| 2026-04-29 15:17 | 54.71680 | 38.48197 | 32708 ft | 436 kts | 332° |
| 2026-04-29 15:17 | 54.74384 | 38.45839 | 32305 ft | 435 kts | 332° |
| 2026-04-29 15:18 | 54.76935 | 38.43627 | 31952 ft | 434 kts | 332° |
| 2026-04-29 15:18 | 54.79595 | 38.41324 | 31577 ft | 433 kts | 333° |
| 2026-04-29 15:18 | 54.82284 | 38.38995 | 31201 ft | 431 kts | 333° |
| 2026-04-29 15:18 | 54.85044 | 38.36994 | 30823 ft | 430 kts | 342° |
| 2026-04-29 15:19 | 54.87934 | 38.35705 | 30464 ft | 428 kts | 347° |
| 2026-04-29 15:19 | 54.90869 | 38.34856 | 30092 ft | 426 kts | 352° |
| 2026-04-29 15:19 | 54.93784 | 38.34231 | 29647 ft | 419 kts | 352° |
| 2026-04-29 15:19 | 54.96661 | 38.33640 | 29207 ft | 413 kts | 352° |
| 2026-04-29 15:20 | 54.99489 | 38.32981 | 28775 ft | 407 kts | 351° |
| 2026-04-29 15:20 | 55.02275 | 38.32262 | 28352 ft | 403 kts | 351° |
| 2026-04-29 15:20 | 55.04997 | 38.31565 | 27937 ft | 398 kts | 351° |
| 2026-04-29 15:20 | 55.07726 | 38.30866 | 27522 ft | 395 kts | 351° |
| 2026-04-29 15:21 | 55.10428 | 38.30176 | 27118 ft | 392 kts | 351° |
| 2026-04-29 15:21 | 55.13117 | 38.29493 | 26711 ft | 389 kts | 351° |
| 2026-04-29 15:21 | 55.15754 | 38.28578 | 26315 ft | 385 kts | 343° |
| 2026-04-29 15:21 | 55.18288 | 38.27100 | 25927 ft | 383 kts | 339° |
| 2026-04-29 15:22 | 55.20747 | 38.25359 | 25545 ft | 380 kts | 337° |
| 2026-04-29 15:22 | 55.23187 | 38.23576 | 25175 ft | 379 kts | 337° |
| 2026-04-29 15:22 | 55.25579 | 38.21834 | 24806 ft | 377 kts | 337° |
| 2026-04-29 15:22 | 55.28010 | 38.20109 | 24439 ft | 375 kts | 336° |
| 2026-04-29 15:23 | 55.30124 | 38.17487 | 24062 ft | 374 kts | 315° |
| 2026-04-29 15:23 | 55.32035 | 38.14421 | 23702 ft | 372 kts | 324° |
| 2026-04-29 15:23 | 55.34166 | 38.11859 | 23293 ft | 371 kts | 327° |
| 2026-04-29 15:23 | 55.36338 | 38.09409 | 22872 ft | 371 kts | 327° |
| 2026-04-29 15:24 | 55.38516 | 38.06988 | 22469 ft | 370 kts | 328° |
| 2026-04-29 15:24 | 55.40701 | 38.04604 | 22076 ft | 370 kts | 328° |
| 2026-04-29 15:24 | 55.42864 | 38.02268 | 21680 ft | 370 kts | 328° |
| 2026-04-29 15:24 | 55.45027 | 37.99818 | 21277 ft | 370 kts | 326° |
| 2026-04-29 15:25 | 55.47159 | 37.97283 | 20882 ft | 370 kts | 324° |
| 2026-04-29 15:25 | 55.49081 | 37.94296 | 20487 ft | 369 kts | 313° |
| 2026-04-29 15:25 | 55.50943 | 37.91191 | 20102 ft | 369 kts | 320° |
| 2026-04-29 15:25 | 55.52941 | 37.88328 | 19724 ft | 369 kts | 321° |
| 2026-04-29 15:26 | 55.54901 | 37.85403 | 19351 ft | 369 kts | 318° |
| 2026-04-29 15:26 | 55.56483 | 37.81944 | 18957 ft | 359 kts | 296° |
| 2026-04-29 15:26 | 55.57102 | 37.77765 | 18590 ft | 350 kts | 277° |
| 2026-04-29 15:26 | 55.57254 | 37.73521 | 18201 ft | 342 kts | 272° |
| 2026-04-29 15:27 | 55.57237 | 37.69528 | 17802 ft | 336 kts | 269° |
| 2026-04-29 15:27 | 55.56884 | 37.65481 | 17392 ft | 332 kts | 257° |
| 2026-04-29 15:27 | 55.55992 | 37.61770 | 16976 ft | 330 kts | 235° |
| 2026-04-29 15:27 | 55.54270 | 37.59126 | 16586 ft | 330 kts | 212° |
| 2026-04-29 15:28 | 55.52240 | 37.57291 | 16201 ft | 327 kts | 205° |
| 2026-04-29 15:28 | 55.50849 | 37.56282 | 15942 ft | 325 kts | 201° |
| 2026-04-29 15:28 | 55.47904 | 37.55166 | 15439 ft | 323 kts | 188° |
| 2026-04-29 15:28 | 55.45680 | 37.54707 | 15060 ft | 321 kts | 187° |
| 2026-04-29 15:29 | 55.43493 | 37.54361 | 14676 ft | 319 kts | 186° |
| 2026-04-29 15:29 | 55.39107 | 37.53625 | 13925 ft | 315 kts | 188° |
| 2026-04-29 15:30 | 55.34784 | 37.52724 | 13094 ft | 311 kts | 185° |
| 2026-04-29 15:30 | 55.32621 | 37.52682 | 12673 ft | 310 kts | 179° |
| 2026-04-29 15:30 | 55.30478 | 37.52908 | 12371 ft | 306 kts | 177° |
| 2026-04-29 15:30 | 55.28377 | 37.53172 | 12102 ft | 300 kts | 178° |
| 2026-04-29 15:31 | 55.26334 | 37.53424 | 11832 ft | 296 kts | 178° |
| 2026-04-29 15:31 | 55.24296 | 37.53677 | 11585 ft | 292 kts | 178° |
| 2026-04-29 15:31 | 55.22279 | 37.53888 | 11327 ft | 289 kts | 179° |
| 2026-04-29 15:31 | 55.20289 | 37.53998 | 11092 ft | 284 kts | 182° |
| 2026-04-29 15:32 | 55.18326 | 37.53865 | 10861 ft | 283 kts | 186° |
| 2026-04-29 15:32 | 55.16362 | 37.53645 | 10642 ft | 283 kts | 186° |
| 2026-04-29 15:32 | 55.14402 | 37.53439 | 10412 ft | 281 kts | 186° |
| 2026-04-29 15:32 | 55.12455 | 37.53282 | 10177 ft | 279 kts | 185° |
| 2026-04-29 15:33 | 55.10522 | 37.53154 | 9947 ft | 277 kts | 184° |
| 2026-04-29 15:33 | 55.08629 | 37.53047 | 9696 ft | 275 kts | 185° |
| 2026-04-29 15:33 | 55.06793 | 37.52408 | 9409 ft | 266 kts | 211° |
| 2026-04-29 15:33 | 55.05485 | 37.50269 | 9163 ft | 259 kts | 239° |
| 2026-04-29 15:34 | 55.04578 | 37.47541 | 8933 ft | 262 kts | 249° |
| 2026-04-29 15:34 | 55.03997 | 37.44538 | 8706 ft | 261 kts | 258° |
| 2026-04-29 15:34 | 55.03794 | 37.41448 | 8465 ft | 254 kts | 282° |
| 2026-04-29 15:34 | 55.04603 | 37.38854 | 8226 ft | 245 kts | 319° |
| 2026-04-29 15:35 | 55.06036 | 37.37345 | 8128 ft | 238 kts | 333° |
| 2026-04-29 15:35 | 55.07542 | 37.36152 | 8059 ft | 238 kts | 337° |
| 2026-04-29 15:35 | 55.09139 | 37.35445 | 7986 ft | 240 kts | 358° |
| 2026-04-29 15:35 | 55.10778 | 37.35606 | 7944 ft | 238 kts | 2° |
| 2026-04-29 15:36 | 55.12418 | 37.35851 | 7923 ft | 235 kts | 2° |
| 2026-04-29 15:36 | 55.14035 | 37.36070 | 7913 ft | 232 kts | 1° |
| 2026-04-29 15:36 | 55.15633 | 37.36207 | 7902 ft | 228 kts | 360° |
| 2026-04-29 15:36 | 55.17211 | 37.36290 | 7895 ft | 226 kts | 359° |
| 2026-04-29 15:37 | 55.18771 | 37.36367 | 7896 ft | 223 kts | 359° |
| 2026-04-29 15:37 | 55.20316 | 37.36452 | 7894 ft | 221 kts | 359° |
| 2026-04-29 15:37 | 55.21854 | 37.36549 | 7900 ft | 223 kts | 359° |
| 2026-04-29 15:37 | 55.23402 | 37.36631 | 7810 ft | 229 kts | 359° |
| 2026-04-29 15:38 | 55.25000 | 37.36717 | 7586 ft | 231 kts | 360° |
| 2026-04-29 15:38 | 55.26608 | 37.36807 | 7360 ft | 232 kts | 360° |
| 2026-04-29 15:38 | 55.28224 | 37.36903 | 7122 ft | 232 kts | 0° |
| 2026-04-29 15:38 | 55.29826 | 37.36994 | 6913 ft | 229 kts | 0° |
| 2026-04-29 15:39 | 55.31410 | 37.37101 | 6713 ft | 226 kts | 2° |
| 2026-04-29 15:39 | 55.32957 | 37.37538 | 6509 ft | 225 kts | 11° |
| 2026-04-29 15:39 | 55.34466 | 37.38254 | 6287 ft | 224 kts | 14° |
| 2026-04-29 15:39 | 55.35955 | 37.39052 | 6066 ft | 223 kts | 14° |
| 2026-04-29 15:40 | 55.37415 | 37.39835 | 5852 ft | 222 kts | 14° |
| 2026-04-29 15:40 | 55.38891 | 37.40574 | 5627 ft | 220 kts | 13° |
| 2026-04-29 15:40 | 55.40368 | 37.41274 | 5423 ft | 220 kts | 13° |
| 2026-04-29 15:40 | 55.41856 | 37.41983 | 5220 ft | 221 kts | 13° |
| 2026-04-29 15:41 | 55.43336 | 37.42691 | 5010 ft | 220 kts | 13° |
| 2026-04-29 15:41 | 55.44816 | 37.43399 | 4803 ft | 220 kts | 13° |
| 2026-04-29 15:41 | 55.46286 | 37.44104 | 4580 ft | 218 kts | 13° |
| 2026-04-29 15:41 | 55.47746 | 37.44804 | 4376 ft | 217 kts | 13° |
| 2026-04-29 15:42 | 55.49195 | 37.45503 | 4161 ft | 214 kts | 13° |
| 2026-04-29 15:42 | 55.50597 | 37.46189 | 3946 ft | 210 kts | 14° |
| 2026-04-29 15:42 | 55.51978 | 37.46859 | 3821 ft | 202 kts | 13° |
| 2026-04-29 15:42 | 55.53325 | 37.47499 | 3636 ft | 201 kts | 13° |
| 2026-04-29 15:43 | 55.54682 | 37.48155 | 3422 ft | 203 kts | 13° |
| 2026-04-29 15:43 | 55.56045 | 37.48811 | 3211 ft | 203 kts | 13° |
| 2026-04-29 15:43 | 55.57411 | 37.49473 | 2985 ft | 203 kts | 13° |
| 2026-04-29 15:43 | 55.58766 | 37.50098 | 2730 ft | 199 kts | 7° |
| 2026-04-29 15:44 | 55.60102 | 37.49737 | 2506 ft | 194 kts | 340° |
| 2026-04-29 15:44 | 55.61358 | 37.48914 | 2335 ft | 190 kts | 338° |
| 2026-04-29 15:44 | 55.62379 | 37.47624 | 2233 ft | 185 kts | 302° |
| 2026-04-29 15:44 | 55.62678 | 37.45454 | 2224 ft | 182 kts | 279° |
| 2026-04-29 15:45 | 55.62775 | 37.43244 | 2216 ft | 179 kts | 275° |
| 2026-04-29 15:45 | 55.62614 | 37.41084 | 2206 ft | 179 kts | 251° |
| 2026-04-29 15:45 | 55.62148 | 37.39196 | 2206 ft | 158 kts | 249° |
| 2026-04-29 15:45 | 55.61730 | 37.37561 | 1937 ft | 133 kts | 251° |
| 2026-04-29 15:46 | 55.61387 | 37.36116 | 1680 ft | 126 kts | 252° |
| 2026-04-29 15:46 | 55.61060 | 37.34668 | 1450 ft | 127 kts | 251° |
| 2026-04-29 15:46 | 55.60742 | 37.33241 | 1239 ft | 126 kts | 252° |
| 2026-04-29 15:46 | 55.60423 | 37.31805 | 1061 ft | 126 kts | 251° |
| 2026-04-29 15:47 | 55.60102 | 37.30363 | 890 ft | 126 kts | 251° |
| 2026-04-29 15:47 | 55.59776 | 37.28934 | 732 ft | 124 kts | 250° |
| 2026-04-29 15:47 | 55.59505 | 37.27704 | 686 ft | 83 kts | 249° |
| 2026-04-29 15:47 | 55.59433 | 37.27184 | 690 ft | 22 kts | 291° |
| 2026-04-29 15:48 | 55.59525 | 37.27033 | 691 ft | 17 kts | 21° |
| 2026-04-29 15:48 | 55.59578 | 37.27206 | 690 ft | 22 kts | 69° |
| 2026-04-29 15:48 | 55.59648 | 37.27517 | 691 ft | 29 kts | 69° |
| 2026-04-29 15:48 | 55.59723 | 37.27856 | 691 ft | 30 kts | 68° |
| 2026-04-29 15:49 | 55.59800 | 37.28193 | 690 ft | 28 kts | 69° |
| 2026-04-29 15:49 | 55.59873 | 37.28522 | 691 ft | 29 kts | 69° |
| 2026-04-29 15:49 | 55.59947 | 37.28858 | 690 ft | 26 kts | 63° |
| 2026-04-29 15:49 | 55.60043 | 37.28899 | 687 ft | 13 kts | 346° |
| 2026-04-29 15:50 | 55.60109 | 37.28850 | 690 ft | 1 kts | 296° |
| 2026-04-29 15:50 | 55.60096 | 37.28792 | 689 ft | 13 kts | 230° |
| 2026-04-29 15:50 | 55.60031 | 37.28660 | 692 ft | 11 kts | 255° |
| 2026-04-29 15:50 | 55.60045 | 37.28595 | 691 ft | 0 kts | 315° |